Time;durP1;ratioP1;P1;durP2;ratioP2;P2;SDS_P1;SDS_P2;PMS_P1;PMS_P2;Temp;Humidity;BMP_temperature;BMP_pressure;BME280_temperature;BME280_humidity;BME280_pressure;Samples;Min_cycle;Max_cycle;Signal;HPM_P1;HPM_P2
2023/03/12 00:00:45;;;;;;;14.30;7.97;;;;;;;1.14;84.27;101051.34;5052569;28;20017;-61
2023/03/12 00:03:10;;;;;;;11.77;7.07;;;;;;;1.14;83.71;101060.63;5051788;28;20021;-61
2023/03/12 00:05:40;;;;;;;11.75;7.53;;;;;;;1.14;84.26;101055.53;5051565;28;20131;-61
2023/03/12 00:08:05;;;;;;;16.73;7.40;;;;;;;1.15;84.78;101057.31;5051909;28;20017;-61
2023/03/12 00:10:32;;;;;;;12.18;7.43;;;;;;;1.12;84.52;101057.09;5052144;28;20556;-61
2023/03/12 00:12:57;;;;;;;12.80;6.90;;;;;;;1.13;84.60;101044.50;5051271;28;20113;-61
2023/03/12 00:15:23;;;;;;;11.98;7.40;;;;;;;1.12;84.63;101046.94;5052361;28;20049;-61
2023/03/12 00:17:49;;;;;;;13.55;7.45;;;;;;;1.15;84.21;101047.16;5051394;28;20116;-61
2023/03/12 00:20:15;;;;;;;13.63;7.05;;;;;;;1.18;83.83;101046.50;5051844;28;20033;-61
2023/03/12 00:22:40;;;;;;;12.73;7.70;;;;;;;1.17;84.42;101045.59;5052519;28;20044;-61
2023/03/12 00:25:10;;;;;;;11.27;7.43;;;;;;;1.19;83.28;101038.06;5051722;28;20025;-61
2023/03/12 00:27:35;;;;;;;9.48;6.85;;;;;;;1.16;84.25;101031.13;5055816;28;20060;-61
2023/03/12 00:30:01;;;;;;;11.57;6.40;;;;;;;1.15;84.16;101014.16;5055906;28;20020;-61
2023/03/12 00:32:26;;;;;;;11.95;6.80;;;;;;;1.14;83.21;101012.38;5055004;28;20025;-61
2023/03/12 00:34:54;;;;;;;10.93;6.88;;;;;;;1.14;84.73;101017.47;5055579;28;20385;-61
2023/03/12 00:37:20;;;;;;;13.25;7.05;;;;;;;1.12;84.94;101013.94;5055935;28;20028;-61
2023/03/12 00:39:45;;;;;;;13.18;6.88;;;;;;;1.11;84.03;101013.06;5055016;28;20108;-61
2023/03/12 00:42:11;;;;;;;12.13;7.15;;;;;;;1.13;84.33;101008.94;5055227;28;20464;-61
2023/03/12 00:44:36;;;;;;;12.93;7.43;;;;;;;1.11;84.74;100999.47;5055626;28;20086;-61
2023/03/12 00:47:01;;;;;;;15.23;7.43;;;;;;;1.11;84.95;100999.47;5054356;28;20021;-61
2023/03/12 00:49:27;;;;;;;12.73;7.60;;;;;;;1.13;84.94;101010.63;5055392;28;20036;-61
2023/03/12 00:51:52;;;;;;;11.88;6.85;;;;;;;1.14;84.23;101012.38;5055372;28;20055;-61
2023/03/12 00:54:18;;;;;;;15.52;7.75;;;;;;;1.14;84.59;101005.63;5054520;28;20118;-61
2023/03/12 00:56:45;;;;;;;14.35;7.15;;;;;;;1.17;84.65;100999.91;5055398;28;20043;-61
2023/03/12 00:59:11;;;;;;;12.93;7.37;;;;;;;1.17;84.44;100989.75;5054669;28;20040;-61
2023/03/12 01:01:36;;;;;;;12.00;6.82;;;;;;;1.18;85.03;100988.97;5054608;28;20280;-61
2023/03/12 01:04:01;;;;;;;11.32;6.35;;;;;;;1.20;84.49;100978.91;5054834;28;20032;-61
2023/03/12 01:06:27;;;;;;;12.82;6.93;;;;;;;1.20;84.47;100989.06;5054710;28;20045;-61
2023/03/12 01:08:54;;;;;;;16.52;7.78;;;;;;;1.20;84.01;100984.91;5054652;28;20033;-61
2023/03/12 01:11:20;;;;;;;13.43;7.03;;;;;;;1.22;83.49;100985.88;5055164;28;20109;-61
2023/03/12 01:13:46;;;;;;;11.57;6.65;;;;;;;1.23;83.35;100984.22;5054884;28;20030;-61
2023/03/12 01:16:12;;;;;;;12.30;6.78;;;;;;;1.22;84.50;100973.16;5054166;28;20024;-61
2023/03/12 01:18:37;;;;;;;16.58;7.07;;;;;;;1.26;83.65;100970.06;5054719;28;20448;-61
2023/03/12 01:21:03;;;;;;;10.93;6.32;;;;;;;1.25;83.68;100969.97;5053666;28;20017;-61
2023/03/12 01:23:28;;;;;;;12.90;6.45;;;;;;;1.27;84.53;100976.03;5054945;28;20039;-61
2023/03/12 01:25:57;;;;;;;12.02;6.57;;;;;;;1.27;83.01;100974.38;5054383;28;20032;-61
2023/03/12 01:28:23;;;;;;;15.65;7.03;;;;;;;1.30;83.10;100976.25;5054013;28;20099;-61
2023/03/12 01:30:48;;;;;;;15.48;6.38;;;;;;;1.28;84.04;100981.22;5054733;28;20052;-61
2023/03/12 01:33:14;;;;;;;13.57;6.57;;;;;;;1.29;84.92;100977.91;5054280;28;20427;-61
2023/03/12 01:35:40;;;;;;;13.27;6.43;;;;;;;1.27;84.56;100971.84;5053962;28;20017;-61
2023/03/12 01:38:07;;;;;;;11.82;7.30;;;;;;;1.29;83.62;100969.41;5053484;28;20033;-61
2023/03/12 01:40:35;;;;;;;13.75;7.55;;;;;;;1.26;84.52;100959.91;5054661;28;20029;-61
2023/03/12 01:43:20;;;;;;;11.02;7.05;;;;;;;1.30;84.17;100977.16;5053420;28;20021;-61
2023/03/12 01:46:20;;;;;;;15.10;7.38;;;;;;;1.31;84.73;100973.81;5054279;28;20053;-61
2023/03/12 01:48:52;;;;;;;12.93;6.80;;;;;;;1.30;83.88;100961.91;5054258;28;20094;-61
2023/03/12 01:51:19;;;;;;;13.27;6.47;;;;;;;1.31;83.40;100932.31;5053293;28;20032;-61
2023/03/12 01:53:48;;;;;;;10.05;6.38;;;;;;;1.28;84.29;100927.91;5054218;28;20083;-61
2023/03/12 01:56:16;;;;;;;14.45;6.25;;;;;;;1.28;83.60;100942.25;5053056;28;20025;-61
2023/03/12 01:58:46;;;;;;;13.38;6.45;;;;;;;1.30;84.19;100936.53;5054239;28;20404;-61
2023/03/12 02:01:13;;;;;;;12.50;6.57;;;;;;;1.29;84.10;100944.91;5053926;28;20025;-61
2023/03/12 02:03:39;;;;;;;12.05;6.82;;;;;;;1.30;84.35;100940.69;5053379;28;20446;-61
2023/03/12 02:06:13;;;;;;;12.40;6.43;;;;;;;1.27;85.00;100936.28;5053694;28;20056;-61
2023/03/12 02:08:42;;;;;;;12.48;6.93;;;;;;;1.29;84.42;100923.69;5053869;28;20033;-61
2023/03/12 02:11:08;;;;;;;13.23;6.78;;;;;;;1.27;84.44;100932.88;5052987;28;20025;-61
2023/03/12 02:13:33;;;;;;;10.75;6.82;;;;;;;1.26;85.58;100938.72;5054020;28;20040;-61
2023/03/12 02:15:59;;;;;;;13.13;7.10;;;;;;;1.28;84.27;100922.81;5053104;28;20404;-61
2023/03/12 02:18:25;;;;;;;14.15;7.20;;;;;;;1.27;84.45;100910.91;5053017;28;20021;-61
2023/03/12 02:21:14;;;;;;;12.98;7.20;;;;;;;1.30;84.80;100921.28;5053845;28;20087;-61
2023/03/12 02:23:56;;;;;;;13.00;7.20;;;;;;;1.28;84.04;100907.59;5053350;28;20021;-61
2023/03/12 02:26:23;;;;;;;13.40;6.97;;;;;;;1.29;84.74;100909.34;5053245;28;20031;-61
2023/03/12 02:28:49;;;;;;;13.38;6.88;;;;;;;1.29;85.05;100899.19;5053599;28;20439;-61
2023/03/12 02:31:19;;;;;;;14.13;7.10;;;;;;;1.29;85.38;100896.66;5052986;28;20151;-60
2023/03/12 02:33:44;;;;;;;13.05;6.72;;;;;;;1.30;85.31;100890.81;5053380;28;20017;-61
2023/03/12 02:36:10;;;;;;;12.07;6.60;;;;;;;1.30;85.07;100889.91;5053224;28;20028;-61
2023/03/12 02:38:46;;;;;;;14.85;6.70;;;;;;;1.29;85.69;100894.13;5052328;28;20032;-61
2023/03/12 02:41:31;;;;;;;13.45;6.97;;;;;;;1.30;85.76;100895.88;5053100;28;20021;-60
2023/03/12 02:44:10;;;;;;;13.43;7.05;;;;;;;1.30;85.55;100906.03;5052937;28;20024;-61
2023/03/12 02:46:42;;;;;;;15.00;6.90;;;;;;;1.29;84.74;100909.34;5052731;28;20028;-61
2023/03/12 02:49:07;;;;;;;12.00;6.38;;;;;;;1.31;85.18;100906.91;5053035;28;20035;-61
2023/03/12 02:51:33;;;;;;;12.48;6.95;;;;;;;1.29;85.58;100904.28;5052999;28;20021;-61
2023/03/12 02:53:58;;;;;;;14.85;7.70;;;;;;;1.31;85.75;100902.69;5052216;28;20075;-61
2023/03/12 02:56:26;;;;;;;12.88;6.80;;;;;;;1.31;85.11;100894.22;5053011;28;20029;-61
2023/03/12 02:58:51;;;;;;;13.88;7.03;;;;;;;1.31;85.13;100892.53;5052646;28;20068;-61
2023/03/12 03:01:17;;;;;;;14.07;7.28;;;;;;;1.31;85.40;100884.06;5052369;28;20061;-61
2023/03/12 03:03:42;;;;;;;11.13;7.13;;;;;;;1.31;85.83;100874.78;5052935;28;20021;-61
2023/03/12 03:06:08;;;;;;;12.00;7.53;;;;;;;1.30;86.14;100875.56;5052280;28;20052;-61
2023/03/12 03:08:33;;;;;;;14.95;7.28;;;;;;;1.30;85.56;100870.50;5052522;28;20025;-61
2023/03/12 03:11:01;;;;;;;14.52;7.55;;;;;;;1.30;86.24;100878.13;5052415;28;20161;-61
2023/03/12 03:13:27;;;;;;;12.75;7.53;;;;;;;1.32;86.55;100878.22;5052811;28;20048;-61
2023/03/12 03:15:52;;;;;;;16.50;7.90;;;;;;;1.33;87.25;100884.16;5052919;28;20059;-61
2023/03/12 03:18:18;;;;;;;13.77;7.80;;;;;;;1.31;87.33;100887.47;5052622;28;20029;-61
2023/03/12 03:20:43;;;;;;;17.65;8.07;;;;;;;1.30;87.84;100883.19;5051851;28;20108;-61
2023/03/12 03:23:09;;;;;;;14.05;8.18;;;;;;;1.28;88.58;100881.31;5052398;28;20021;-61
2023/03/12 03:25:34;;;;;;;13.98;7.78;;;;;;;1.25;88.15;100882.00;5052642;28;20017;-61
2023/03/12 03:27:59;;;;;;;14.40;7.90;;;;;;;1.26;88.66;100883.75;5051465;28;20029;-61
2023/03/12 03:30:25;;;;;;;15.02;7.97;;;;;;;1.28;89.94;100886.41;5052806;28;20100;-61
2023/03/12 03:32:50;;;;;;;14.52;8.45;;;;;;;1.25;89.59;100892.16;5052870;28;20471;-61
2023/03/12 03:35:16;;;;;;;17.65;8.40;;;;;;;1.31;90.63;100884.06;5051665;28;20029;-61
2023/03/12 03:37:41;;;;;;;13.60;8.27;;;;;;;1.33;91.94;100879.09;5052752;28;20048;-60
2023/03/12 03:40:10;;;;;;;13.70;7.65;;;;;;;1.38;91.38;100877.72;5052368;28;20021;-60
2023/03/12 03:42:36;;;;;;;12.77;6.95;;;;;;;1.40;92.97;100874.50;5051793;28;20100;-60
2023/03/12 03:45:01;;;;;;;14.05;7.50;;;;;;;1.43;93.33;100863.69;5052135;28;20025;-60
2023/03/12 03:47:26;;;;;;;14.95;6.60;;;;;;;1.46;93.40;100871.53;5052352;28;20052;-60
2023/03/12 03:49:52;;;;;;;11.70;6.30;;;;;;;1.46;94.36;100861.38;5051968;28;20385;-60
2023/03/12 03:52:17;;;;;;;12.27;6.57;;;;;;;1.48;94.81;100853.06;5052128;28;20113;-60
2023/03/12 03:54:42;;;;;;;11.55;6.55;;;;;;;1.48;94.53;100845.44;5052201;28;20373;-60
2023/03/12 03:57:07;;;;;;;12.80;6.75;;;;;;;1.50;95.32;100843.00;5051338;28;20039;-60
2023/03/12 03:59:33;;;;;;;13.23;6.93;;;;;;;1.48;95.96;100829.31;5052576;28;20473;-60
2023/03/12 04:01:58;;;;;;;12.32;6.80;;;;;;;1.47;95.50;100832.63;5055574;28;20033;-60
2023/03/12 04:04:23;;;;;;;11.35;6.95;;;;;;;1.46;96.01;100834.28;5055905;28;20092;-60
2023/03/12 04:06:49;;;;;;;14.35;7.05;;;;;;;1.45;96.82;100826.59;5056187;28;20041;-60
2023/03/12 04:09:14;;;;;;;13.68;7.15;;;;;;;1.46;96.34;100821.59;5055728;28;20405;-60
2023/03/12 04:11:39;;;;;;;13.38;6.88;;;;;;;1.47;96.60;100819.91;5055526;28;20019;-60
2023/03/12 04:14:05;;;;;;;13.07;7.10;;;;;;;1.46;97.13;100820.72;5055988;28;20468;-60
2023/03/12 04:16:30;;;;;;;15.75;6.68;;;;;;;1.45;96.94;100809.66;5055758;28;20107;-60
2023/03/12 04:18:55;;;;;;;11.93;7.18;;;;;;;1.46;96.91;100796.19;5055003;28;20079;-60
2023/03/12 04:21:21;;;;;;;13.13;7.28;;;;;;;1.45;97.16;100801.19;5056114;28;20029;-60
2023/03/12 04:23:46;;;;;;;12.80;7.68;;;;;;;1.43;97.12;100795.09;5055810;28;20027;-59
2023/03/12 04:26:11;;;;;;;12.23;7.63;;;;;;;1.44;96.30;100794.34;5055077;28;20021;-59
2023/03/12 04:28:37;;;;;;;16.88;7.72;;;;;;;1.41;96.60;100787.41;5056037;28;20033;-60
2023/03/12 04:31:05;;;;;;;13.15;7.72;;;;;;;1.40;97.10;100774.59;5054853;28;20025;-60
2023/03/12 04:33:33;;;;;;;15.75;7.97;;;;;;;1.39;96.70;100777.91;5055694;28;20461;-60
2023/03/12 04:35:59;;;;;;;16.27;7.88;;;;;;;1.39;96.43;100777.91;5055171;28;20467;-59
2023/03/12 04:38:25;;;;;;;13.07;7.55;;;;;;;1.39;96.73;100767.75;5054835;28;20124;-60
2023/03/12 04:41:10;;;;;;;12.10;7.30;;;;;;;1.41;97.19;100771.28;5055530;28;20033;-59
2023/03/12 04:43:35;;;;;;;12.35;7.93;;;;;;;1.39;97.26;100765.22;5055471;28;20028;-60
2023/03/12 04:46:01;;;;;;;11.75;7.28;;;;;;;1.40;97.05;100762.78;5054770;28;20380;-60
2023/03/12 04:48:28;;;;;;;11.77;6.88;;;;;;;1.38;97.34;100771.97;5055369;28;20053;-60
2023/03/12 04:50:53;;;;;;;14.77;7.88;;;;;;;1.40;97.65;100777.16;5055012;28;20025;-59
2023/03/12 04:53:19;;;;;;;12.55;6.72;;;;;;;1.40;97.21;100764.44;5054671;28;20044;-60
2023/03/12 04:55:44;;;;;;;13.75;7.53;;;;;;;1.40;97.81;100759.38;5055421;28;20116;-60
2023/03/12 04:58:09;;;;;;;17.38;7.93;;;;;;;1.42;97.05;100758.69;5054807;28;20064;-60
2023/03/12 05:00:35;;;;;;;15.05;7.78;;;;;;;1.43;97.22;100751.94;5054883;28;20028;-60
2023/03/12 05:03:01;;;;;;;12.25;6.90;;;;;;;1.44;96.76;100757.09;5054881;28;20107;-60
2023/03/12 05:05:26;;;;;;;14.02;7.35;;;;;;;1.46;96.46;100752.16;5054787;28;20033;-59
2023/03/12 05:07:51;;;;;;;16.00;7.20;;;;;;;1.47;96.79;100746.28;5054472;28;20032;-60
2023/03/12 05:10:17;;;;;;;16.85;7.85;;;;;;;1.48;96.65;100742.97;5054953;28;20047;-59
2023/03/12 05:12:42;;;;;;;15.30;7.68;;;;;;;1.51;96.38;100738.09;5053740;28;20028;-60
2023/03/12 05:15:08;;;;;;;14.30;7.28;;;;;;;1.51;97.15;100727.94;5054304;28;20021;-59
2023/03/12 05:17:33;;;;;;;15.30;7.07;;;;;;;1.52;96.87;100723.72;5054829;28;20029;-60
2023/03/12 05:19:58;;;;;;;11.75;6.80;;;;;;;1.52;97.33;100728.78;5054312;28;20029;-60
2023/03/12 05:22:24;;;;;;;16.90;7.45;;;;;;;1.53;97.50;100733.97;5054225;28;20063;-60
2023/03/12 05:24:49;;;;;;;16.92;7.32;;;;;;;1.52;97.36;100728.78;5055019;28;20033;-60
2023/03/12 05:27:14;;;;;;;12.77;6.95;;;;;;;1.52;97.82;100722.03;5053650;28;20376;-60
2023/03/12 05:29:40;;;;;;;14.55;7.20;;;;;;;1.52;98.37;100719.50;5054826;28;20017;-60
2023/03/12 05:32:06;;;;;;;18.70;7.30;;;;;;;1.51;99.03;100707.63;5054361;28;20390;-60
2023/03/12 05:34:31;;;;;;;14.15;7.07;;;;;;;1.52;100.00;100714.44;5053919;28;20037;-60
2023/03/12 05:36:57;;;;;;;15.48;7.72;;;;;;;1.54;100.00;100707.78;5054041;28;20032;-60
2023/03/12 05:39:23;;;;;;;13.32;7.47;;;;;;;1.52;100.00;100709.34;5054583;28;20065;-60
2023/03/12 05:41:48;;;;;;;14.93;7.25;;;;;;;1.52;100.00;100704.25;5053504;28;20029;-60
2023/03/12 05:44:14;;;;;;;14.88;7.40;;;;;;;1.52;100.00;100713.56;5054257;28;20025;-60
2023/03/12 05:46:41;;;;;;;16.85;7.43;;;;;;;1.52;100.00;100716.97;5054288;28;20017;-60
2023/03/12 05:49:06;;;;;;;19.98;7.72;;;;;;;1.52;100.00;100713.56;5053568;28;20060;-60
2023/03/12 05:51:31;;;;;;;14.18;7.70;;;;;;;1.50;100.00;100713.47;5054187;28;20056;-60
2023/03/12 05:53:58;;;;;;;17.05;8.75;;;;;;;1.51;100.00;100707.63;5053548;28;20044;-60
2023/03/12 05:56:23;;;;;;;19.33;8.18;;;;;;;1.51;100.00;100699.09;5053708;28;20025;-60
2023/03/12 05:58:48;;;;;;;14.70;7.65;;;;;;;1.51;100.00;100696.56;5054018;28;20037;-60
2023/03/12 06:01:22;;;;;;;19.80;8.55;;;;;;;1.50;100.00;100705.84;5053598;28;20071;-60
2023/03/12 06:03:48;;;;;;;24.05;8.82;;;;;;;1.51;100.00;100699.09;5053483;28;20029;-60
2023/03/12 06:06:14;;;;;;;19.67;8.60;;;;;;;1.50;100.00;100710.94;5053423;28;20106;-60
2023/03/12 06:08:40;;;;;;;14.25;8.65;;;;;;;1.51;100.00;100715.22;5053823;28;20047;-60
2023/03/12 06:11:06;;;;;;;17.23;8.43;;;;;;;1.51;100.00;100709.25;5053032;28;20032;-59
2023/03/12 06:13:32;;;;;;;18.98;9.02;;;;;;;1.51;100.00;100712.69;5053781;28;20029;-60
2023/03/12 06:16:03;;;;;;;22.10;9.18;;;;;;;1.54;100.00;100724.72;5053375;28;20116;-60
2023/03/12 06:18:29;;;;;;;17.55;9.23;;;;;;;1.56;100.00;100724.03;5053155;28;20028;-60
2023/03/12 06:20:54;;;;;;;17.30;9.85;;;;;;;1.56;100.00;100716.41;5053280;28;20021;-60
2023/03/12 06:23:19;;;;;;;15.98;8.98;;;;;;;1.60;100.00;100728.50;5053232;28;20024;-60
2023/03/12 06:25:45;;;;;;;16.73;9.45;;;;;;;1.60;100.00;100725.97;5053132;28;20104;-59
2023/03/12 06:28:10;;;;;;;18.05;9.63;;;;;;;1.63;100.00;100725.28;5053369;28;20035;-60
2023/03/12 06:30:35;;;;;;;15.05;9.43;;;;;;;1.63;100.00;100717.66;5052932;28;20040;-60
2023/03/12 06:33:02;;;;;;;17.08;10.38;;;;;;;1.63;100.00;100715.13;5053220;28;20078;-60
2023/03/12 06:35:28;;;;;;;16.90;10.43;;;;;;;1.64;100.00;100707.59;5053478;28;20044;-60
2023/03/12 06:37:53;;;;;;;20.55;10.95;;;;;;;1.64;100.00;100705.06;5052490;28;20025;-60
2023/03/12 06:40:19;;;;;;;19.25;11.68;;;;;;;1.65;100.00;100693.22;5053563;28;20065;-60
2023/03/12 06:42:44;;;;;;;20.25;12.50;;;;;;;1.64;100.00;100694.91;5053203;28;20028;-60
2023/03/12 06:45:09;;;;;;;19.35;12.52;;;;;;;1.63;100.00;100693.13;5052254;28;20131;-60
2023/03/12 06:47:35;;;;;;;24.40;13.68;;;;;;;1.62;100.00;100688.81;5053142;28;20029;-60
2023/03/12 06:50:00;;;;;;;25.05;13.48;;;;;;;1.61;100.00;100682.00;5052414;28;20024;-60
2023/03/12 06:52:26;;;;;;;26.27;14.77;;;;;;;1.60;100.00;100681.88;5052360;28;20025;-60
2023/03/12 06:54:51;;;;;;;22.17;14.98;;;;;;;1.60;100.00;100679.34;5053355;28;20028;-60
2023/03/12 06:57:16;;;;;;;24.90;15.23;;;;;;;1.61;100.00;100676.03;5052597;28;20052;-60
2023/03/12 06:59:42;;;;;;;24.60;15.00;;;;;;;1.63;100.00;100670.25;5052465;28;20032;-60
2023/03/12 07:02:11;;;;;;;27.63;15.80;;;;;;;1.64;100.00;100673.72;5052529;28;20044;-60
2023/03/12 07:04:36;;;;;;;33.00;16.92;;;;;;;1.66;100.00;100666.19;5052670;28;20108;-60
2023/03/12 07:07:02;;;;;;;29.73;17.50;;;;;;;1.64;100.00;100659.31;5051602;28;20123;-60
2023/03/12 07:09:27;;;;;;;31.55;17.27;;;;;;;1.69;100.00;100668.91;5053052;28;20027;-59
2023/03/12 07:11:52;;;;;;;32.03;18.75;;;;;;;1.70;100.00;100666.44;5052634;28;20024;-60
2023/03/12 07:14:20;;;;;;;30.63;18.38;;;;;;;1.71;100.00;100663.13;5052017;28;20213;-59
2023/03/12 07:16:45;;;;;;;31.00;18.17;;;;;;;1.72;100.00;100661.47;5052773;28;20017;-60
2023/03/12 07:19:13;;;;;;;28.95;19.13;;;;;;;1.76;100.00;100663.41;5052001;28;20079;-60
2023/03/12 07:21:38;;;;;;;29.30;17.70;;;;;;;1.78;100.00;100661.84;5052297;28;20060;-59
2023/03/12 07:24:06;;;;;;;30.63;18.80;;;;;;;1.81;100.00;100656.97;5052475;28;20445;-60
2023/03/12 07:26:32;;;;;;;;;;;;;;;1.85;100.00;100671.59;5052985;28;20029;-60
2023/03/12 07:28:58;;;;;;;33.17;19.25;;;;;;;1.84;100.00;100674.94;5051796;28;19948;-60
2023/03/12 07:31:23;;;;;;;40.83;20.65;;;;;;;1.83;100.00;100668.09;5052507;28;20079;-60
2023/03/12 07:33:48;;;;;;;30.77;21.73;;;;;;;1.83;100.00;100670.63;5051701;28;20063;-60
2023/03/12 07:36:14;;;;;;;30.17;20.70;;;;;;;1.79;100.00;100676.31;5051367;28;20029;-60
2023/03/12 07:38:39;;;;;;;34.97;23.02;;;;;;;1.79;100.00;100673.75;5052580;28;20134;-60
2023/03/12 07:41:05;;;;;;;40.05;23.90;;;;;;;1.86;100.00;100670.84;5051484;28;20044;-60
2023/03/12 07:43:30;;;;;;;33.55;24.35;;;;;;;1.89;100.00;100671.00;5052451;28;20017;-60
2023/03/12 07:45:56;;;;;;;37.58;23.90;;;;;;;1.90;100.00;100671.88;5052004;28;20108;-60
2023/03/12 07:48:21;;;;;;;40.35;24.52;;;;;;;1.89;100.00;100673.56;5051836;28;20017;-60
2023/03/12 07:50:47;;;;;;;35.85;24.98;;;;;;;1.93;100.00;100679.72;5052343;28;20064;-60
2023/03/12 07:53:12;;;;;;;35.88;24.77;;;;;;;1.94;100.00;100671.31;5051924;28;20488;-60
2023/03/12 07:55:37;;;;;;;37.88;24.52;;;;;;;1.97;100.00;100674.88;5052003;28;20194;-60
2023/03/12 07:58:03;;;;;;;34.95;24.25;;;;;;;2.02;100.00;100670.09;5051831;28;20095;-60
2023/03/12 08:00:29;;;;;;;36.08;25.25;;;;;;;2.05;100.00;100677.03;5052137;28;20074;-59
2023/03/12 08:02:54;;;;;;;37.80;26.60;;;;;;;2.10;100.00;100673.09;5051273;28;20456;-60
2023/03/12 08:05:23;;;;;;;36.25;26.27;;;;;;;2.15;100.00;100676.81;5052272;28;20521;-60
2023/03/12 08:07:49;;;;;;;34.05;25.00;;;;;;;2.21;100.00;100671.19;5051918;28;20358;-60
2023/03/12 08:10:14;;;;;;;34.05;25.75;;;;;;;2.25;100.00;100668.94;5051417;28;20040;-59
2023/03/12 08:12:39;;;;;;;34.10;26.10;;;;;;;2.30;100.00;100664.16;5052348;28;20021;-60
2023/03/12 08:15:07;;;;;;;34.92;27.08;;;;;;;2.37;100.00;100665.38;5051842;28;20086;-59
2023/03/12 08:17:32;;;;;;;36.53;26.23;;;;;;;2.42;100.00;100658.91;5051679;28;20036;-60
2023/03/12 08:19:58;;;;;;;37.80;27.30;;;;;;;2.46;100.00;100655.75;5051950;28;20373;-60
2023/03/12 08:22:23;;;;;;;44.70;29.35;;;;;;;2.53;100.00;100664.63;5051727;28;20108;-60
2023/03/12 08:24:48;;;;;;;41.92;28.33;;;;;;;2.57;100.00;100672.53;5051607;28;20029;-60
2023/03/12 08:27:13;;;;;;;41.03;27.95;;;;;;;2.62;100.00;100672.78;5051850;28;20041;-59
2023/03/12 08:29:40;;;;;;;41.63;29.15;;;;;;;2.68;100.00;100674.84;5051946;28;20415;-59
2023/03/12 08:32:06;;;;;;;42.15;28.80;;;;;;;2.74;100.00;100665.03;5051073;28;20025;-60
2023/03/12 08:34:34;;;;;;;38.28;28.80;;;;;;;2.78;100.00;100684.75;5052176;28;20032;-60
2023/03/12 08:37:00;;;;;;;37.78;29.50;;;;;;;2.83;100.00;100680.81;5051152;28;20491;-60
2023/03/12 08:39:25;;;;;;;42.53;30.42;;;;;;;2.89;100.00;100683.72;5051839;28;20123;-60
2023/03/12 08:41:54;;;;;;;43.78;30.17;;;;;;;2.94;100.00;100677.22;5051947;28;20477;-60
2023/03/12 08:44:20;;;;;;;43.08;30.15;;;;;;;2.99;100.00;100682.56;5051314;28;20052;-60
2023/03/12 08:46:46;;;;;;;41.40;29.00;;;;;;;3.04;100.00;100683.72;5053399;28;20029;-60
2023/03/12 08:49:11;;;;;;;41.95;30.67;;;;;;;3.15;100.00;100691.97;5055016;28;20017;-60
2023/03/12 08:51:37;;;;;;;45.58;30.60;;;;;;;3.22;100.00;100688.97;5054994;28;20035;-60
2023/03/12 08:54:04;;;;;;;41.65;30.65;;;;;;;3.29;100.00;100695.28;5055026;28;20413;-60
2023/03/12 08:56:29;;;;;;;46.22;31.58;;;;;;;3.37;100.00;100698.25;5055028;28;20418;-59
2023/03/12 08:58:54;;;;;;;47.35;31.98;;;;;;;3.47;100.00;100700.53;5054366;28;20115;-60
2023/03/12 09:01:19;;;;;;;57.33;34.67;;;;;;;3.57;100.00;100697.72;5055079;28;20060;-60
2023/03/12 09:03:46;;;;;;;53.25;35.15;;;;;;;3.63;100.00;100695.50;5055236;28;20032;-60
2023/03/12 09:06:15;;;;;;;56.90;36.17;;;;;;;3.72;100.00;100694.25;5054221;28;20079;-60
2023/03/12 09:08:44;;;;;;;65.43;37.97;;;;;;;3.84;100.00;100694.06;5055122;28;20028;-59
2023/03/12 09:11:10;;;;;;;59.53;36.83;;;;;;;3.90;100.00;100695.25;5054463;28;20025;-60
2023/03/12 09:13:36;;;;;;;67.35;39.97;;;;;;;4.00;100.00;100698.31;5054425;28;20103;-60
2023/03/12 09:16:03;;;;;;;68.60;42.00;;;;;;;4.08;100.00;100699.56;5054861;28;20104;-60
2023/03/12 09:18:28;;;;;;;75.10;44.67;;;;;;;4.19;100.00;100703.59;5054754;28;20025;-59
2023/03/12 09:20:55;;;;;;;81.75;46.58;;;;;;;4.32;100.00;100694.03;5054070;28;20083;-59
2023/03/12 09:23:20;;;;;;;88.82;48.70;;;;;;;4.42;100.00;100688.63;5054692;28;20465;-59
2023/03/12 09:25:46;;;;;;;88.97;50.45;;;;;;;4.54;100.00;100688.38;5054591;28;20028;-59
2023/03/12 09:28:12;;;;;;;87.30;50.55;;;;;;;4.64;100.00;100689.72;5053702;28;20039;-59
2023/03/12 09:30:37;;;;;;;95.93;50.92;;;;;;;4.77;100.00;100692.94;5054707;28;20021;-59
2023/03/12 09:33:03;;;;;;;96.57;55.00;;;;;;;4.90;100.00;100689.34;5054099;28;20101;-59
2023/03/12 09:35:30;;;;;;;108.50;56.65;;;;;;;5.06;100.00;100685.00;5053970;28;20032;-59
2023/03/12 09:37:56;;;;;;;107.15;56.40;;;;;;;5.19;100.00;100700.13;5054176;28;20028;-59
2023/03/12 09:40:24;;;;;;;105.70;57.10;;;;;;;5.27;100.00;100696.25;5052723;28;20069;-59
2023/03/12 09:42:54;;;;;;;98.40;56.25;;;;;;;5.37;100.00;100694.16;5052425;28;20377;-59
2023/03/12 09:45:23;;;;;;;96.00;56.15;;;;;;;5.58;100.00;100692.63;5054347;28;20040;-60
2023/03/12 09:47:54;;;;;;;96.15;55.88;;;;;;;5.65;100.00;100690.38;5053692;28;20037;-59
2023/03/12 09:50:22;;;;;;;94.88;55.35;;;;;;;5.78;100.00;100695.22;5054247;28;20044;-59
2023/03/12 09:53:24;;;;;;;88.78;54.13;;;;;;;5.90;100.00;100712.81;5054049;28;20029;-60
2023/03/12 09:55:52;;;;;;;83.32;53.35;;;;;;;6.02;100.00;100720.25;5053809;28;20104;-59
2023/03/12 09:58:30;;;;;;;81.07;51.05;;;;;;;6.14;100.00;100723.34;5053194;28;20033;-59
2023/03/12 10:01:00;;;;;;;;;;;;;;;6.23;100.00;100721.19;5054031;28;20108;-60
2023/03/12 10:03:34;;;;;;;78.93;48.53;;;;;;;6.30;100.00;100730.06;5053456;28;20364;-59
2023/03/12 10:06:20;;;;;;;72.93;47.92;;;;;;;6.31;100.00;100725.78;5053542;28;20067;-60
2023/03/12 10:09:13;;;;;;;74.25;47.65;;;;;;;6.42;100.00;100719.47;5053225;28;20148;-59
2023/03/12 10:11:51;;;;;;;79.35;48.83;;;;;;;6.48;100.00;100717.19;5053743;28;20025;-59
2023/03/12 10:14:45;;;;;;;76.72;47.60;;;;;;;6.61;100.00;100716.06;5053421;28;20640;-59
2023/03/12 10:17:19;;;;;;;74.07;47.33;;;;;;;6.68;100.00;100712.06;5052880;28;20039;-60
2023/03/12 10:20:09;;;;;;;73.88;46.20;;;;;;;6.83;100.00;100730.66;5053797;28;20029;-59
2023/03/12 10:22:54;;;;;;;73.90;45.90;;;;;;;6.96;100.00;100715.78;5053169;28;20083;-59
2023/03/12 10:25:46;;;;;;;71.82;44.65;;;;;;;7.12;100.00;100719.88;5053370;28;20457;-59
2023/03/12 10:28:17;;;;;;;71.68;44.30;;;;;;;7.32;100.00;100710.44;5052887;28;20473;-59
2023/03/12 10:30:49;;;;;;;67.50;41.17;;;;;;;7.38;100.00;100715.81;5052863;28;20044;-59
2023/03/12 10:33:17;;;;;;;65.97;40.47;;;;;;;7.41;100.00;100715.91;5053159;28;20059;-59
2023/03/12 10:35:42;;;;;;;67.90;39.72;;;;;;;7.40;100.00;100717.63;5053192;28;20112;-59
2023/03/12 10:38:17;;;;;;;62.25;39.85;;;;;;;7.50;100.00;100728.25;5052410;28;20104;-59
2023/03/12 10:40:42;;;;;;;59.70;38.50;;;;;;;7.63;100.00;100711.66;5053460;28;20029;-59
2023/03/12 10:43:08;;;;;;;63.72;38.63;;;;;;;7.70;100.00;100727.34;5052430;28;20021;-60
2023/03/12 10:45:39;;;;;;;67.93;37.60;;;;;;;7.73;100.00;100713.75;5052732;28;20017;-59
2023/03/12 10:48:07;;;;;;;65.50;36.92;;;;;;;7.74;100.00;100705.25;5052891;28;20078;-59
2023/03/12 10:50:38;;;;;;;69.50;38.97;;;;;;;7.74;100.00;100712.94;5052897;28;20111;-59
2023/03/12 10:53:21;;;;;;;76.22;38.60;;;;;;;7.81;100.00;100707.25;5052479;28;20036;-59
2023/03/12 10:56:00;;;;;;;68.75;38.47;;;;;;;7.85;100.00;100708.22;5052507;28;20379;-59
2023/03/12 10:58:29;;;;;;;70.05;38.60;;;;;;;7.85;100.00;100708.22;5052312;28;20036;-59
2023/03/12 11:00:57;;;;;;;68.47;36.35;;;;;;;7.81;100.00;100712.38;5052630;28;20033;-59
2023/03/12 11:03:22;;;;;;;69.13;38.72;;;;;;;7.86;100.00;100715.13;5052699;28;20029;-59
2023/03/12 11:05:54;;;;;;;74.93;38.63;;;;;;;7.83;100.00;100710.75;5051846;28;20404;-59
2023/03/12 11:08:47;;;;;;;74.03;37.75;;;;;;;7.82;100.00;100711.53;5052704;28;20036;-59
2023/03/12 11:11:29;;;;;;;75.13;39.22;;;;;;;7.82;100.00;100718.38;5051010;28;20029;-59
2023/03/12 11:14:07;;;;;;;75.95;37.83;;;;;;;7.84;100.00;100717.63;5051735;28;20476;-59
2023/03/12 11:16:32;;;;;;;72.10;36.15;;;;;;;7.84;100.00;100712.50;5052458;28;20025;-59
2023/03/12 11:19:00;;;;;;;73.13;36.38;;;;;;;7.86;100.00;100728.84;5051756;28;20086;-59
2023/03/12 11:21:26;;;;;;;78.40;38.45;;;;;;;7.85;100.00;100724.50;5052839;28;20021;-59